Time;durP1;ratioP1;P1;durP2;ratioP2;P2;SDS_P1;SDS_P2;PMS_P1;PMS_P2;Temp;Humidity;BMP_temperature;BMP_pressure;BME280_temperature;BME280_humidity;BME280_pressure;Samples;Min_cycle;Max_cycle;Signal;HPM_P1;HPM_P2
2023/09/29 07:51:50;;;;;;;15.60;5.60;;;;;;;16.02;91.86;100682.90;106723;1283;22677;-77
2023/09/29 07:54:21;;;;;;;17.80;6.10;;;;;;;16.19;91.48;100681.06;106676;1269;23414;-77
2023/09/29 07:56:52;;;;;;;20.70;6.50;;;;;;;16.31;91.09;100684.02;106884;1283;23476;-77
2023/09/29 07:59:23;;;;;;;16.40;6.20;;;;;;;16.41;90.80;100683.89;106818;1284;22545;-77
2023/09/29 08:01:54;;;;;;;16.10;6.20;;;;;;;16.50;90.73;100683.36;106739;1283;22671;-77
2023/09/29 08:04:24;;;;;;;16.60;4.70;;;;;;;16.66;90.32;100683.39;106800;1270;22559;-77
2023/09/29 08:06:55;;;;;;;16.70;5.40;;;;;;;16.82;90.03;100684.90;106746;1283;24250;-77
2023/09/29 08:09:26;;;;;;;15.90;5.50;;;;;;;16.98;89.38;100677.98;106786;1283;22550;-77
2023/09/29 08:11:57;;;;;;;16.90;5.60;;;;;;;17.13;88.87;100679.92;106784;1283;25338;-77
2023/09/29 08:14:28;;;;;;;17.40;5.60;;;;;;;17.25;88.58;100678.12;106740;1283;22533;-77
2023/09/29 08:16:58;;;;;;;19.90;4.90;;;;;;;17.37;88.25;100674.66;106816;1283;22587;-77
2023/09/29 08:19:30;;;;;;;14.70;5.20;;;;;;;17.46;87.96;100677.32;107225;1283;22655;-81
2023/09/29 08:22:01;;;;;;;13.60;5.10;;;;;;;17.54;87.55;100676.39;107130;1282;22611;-80
2023/09/29 08:24:32;;;;;;;15.20;5.30;;;;;;;17.66;87.44;100678.27;107008;1283;22537;-80
2023/09/29 08:27:03;;;;;;;16.90;5.10;;;;;;;17.78;87.22;100677.56;107051;1283;26056;-81
2023/09/29 08:29:34;;;;;;;13.70;4.20;;;;;;;17.87;86.70;100674.87;107658;1283;23334;-82
2023/09/29 08:32:06;;;;;;;15.90;4.70;;;;;;;17.99;86.42;100673.59;107765;1283;23017;-81
2023/09/29 08:34:39;;;;;;;17.70;5.90;;;;;;;18.13;86.30;100668.23;107911;1283;22660;-81
2023/09/29 08:37:11;;;;;;;15.90;4.40;;;;;;;18.23;85.84;100674.18;107971;1284;22549;-81
2023/09/29 08:39:41;;;;;;;14.10;4.50;;;;;;;18.38;85.64;100671.80;107913;1284;22558;-81
2023/09/29 08:42:22;;;;;;;13.70;3.90;;;;;;;18.53;85.40;100673.73;107989;1283;22572;-82
2023/09/29 08:44:52;;;;;;;;;;;;;;;18.70;84.65;100669.65;108018;1284;25307;-82
2023/09/29 08:47:28;;;;;;;14.90;4.80;;;;;;;18.86;84.26;100668.56;107818;1284;22589;-81
2023/09/29 08:50:00;;;;;;;16.10;4.10;;;;;;;18.94;83.38;100663.52;107825;1283;22551;-81
2023/09/29 08:52:32;;;;;;;12.90;3.80;;;;;;;19.07;83.43;100664.58;109781;1284;22934;-83
2023/09/29 08:55:04;;;;;;;13.50;4.50;;;;;;;19.24;82.64;100662.67;109754;1285;22221;-77
2023/09/29 08:57:35;;;;;;;17.50;4.20;;;;;;;19.36;82.28;100662.46;109724;1284;22220;-79
2023/09/29 09:00:07;;;;;;;13.70;3.50;;;;;;;19.52;81.94;100661.17;109749;1282;22279;-78
2023/09/29 09:02:37;;;;;;;15.60;3.50;;;;;;;19.69;81.57;100657.73;109739;1284;22178;-78
2023/09/29 09:05:10;;;;;;;15.80;3.80;;;;;;;19.86;81.13;100652.23;109753;1271;22898;-78
2023/09/29 09:07:43;;;;;;;12.00;3.20;;;;;;;19.98;80.67;100648.83;109751;1285;22203;-78
2023/09/29 09:10:15;;;;;;;11.70;3.00;;;;;;;20.11;80.06;100645.63;109738;1285;22183;-78
2023/09/29 09:12:45;;;;;;;12.30;3.30;;;;;;;20.24;79.39;100649.59;109737;1285;22959;-78
2023/09/29 09:15:26;;;;;;;9.70;2.90;;;;;;;20.36;78.80;100651.94;109760;1285;22249;-78
2023/09/29 09:17:57;;;;;;;9.80;3.00;;;;;;;20.49;78.18;100654.35;109759;1285;22325;-78
2023/09/29 09:20:29;;;;;;;13.30;3.00;;;;;;;20.57;77.44;100654.89;109752;1285;22769;-78
2023/09/29 09:23:01;;;;;;;12.00;2.90;;;;;;;20.70;77.06;100655.36;109763;1285;22327;-79
2023/09/29 09:25:38;;;;;;;17.70;3.10;;;;;;;20.84;76.53;100657.45;109722;1285;23047;-79
2023/09/29 09:28:17;;;;;;;13.50;3.80;;;;;;;20.92;75.69;100660.66;109749;1285;22209;-79
2023/09/29 09:30:51;;;;;;;15.90;3.30;;;;;;;21.03;75.34;100655.82;109752;1285;22224;-79
2023/09/29 09:33:22;;;;;;;13.80;3.20;;;;;;;21.15;74.70;100653.36;109765;1285;22175;-79
2023/09/29 09:36:03;;;;;;;11.80;3.30;;;;;;;21.24;74.38;100655.22;109761;1285;22147;-78
2023/09/29 09:38:35;;;;;;;10.20;3.00;;;;;;;21.35;74.04;100654.94;109744;1285;22173;-78
2023/09/29 09:41:07;;;;;;;9.20;2.50;;;;;;;21.46;73.47;100650.50;109755;1285;22182;-78
2023/09/29 09:43:38;;;;;;;11.90;2.10;;;;;;;21.59;71.88;100650.76;109771;1285;22361;-79
2023/09/29 09:46:11;;;;;;;11.10;2.20;;;;;;;21.73;71.57;100648.27;109744;1285;22290;-78
2023/09/29 09:49:08;;;;;;;12.90;2.20;;;;;;;21.82;70.69;100649.55;109710;1285;22980;-78
2023/09/29 09:51:42;;;;;;;11.20;2.30;;;;;;;21.95;70.04;100649.52;109768;1284;22156;-78
2023/09/29 09:54:20;;;;;;;10.30;2.30;;;;;;;22.02;69.41;100644.75;109809;1284;23039;-78
2023/09/29 09:56:56;;;;;;;7.40;2.20;;;;;;;22.16;68.94;100646.10;109757;1279;22181;-78
2023/09/29 09:59:28;;;;;;;13.30;2.50;;;;;;;22.27;68.23;100639.23;109799;1284;22139;-79
2023/09/29 10:02:03;;;;;;;10.10;2.30;;;;;;;22.38;67.95;100638.67;109813;1283;22166;-79
2023/09/29 10:04:38;;;;;;;12.20;2.70;;;;;;;22.44;67.05;100641.23;107266;1276;23038;-79
2023/09/29 10:07:10;;;;;;;11.30;2.20;;;;;;;22.51;66.77;100638.54;106765;1277;23199;-78
2023/09/29 10:09:48;;;;;;;7.90;2.10;;;;;;;22.59;66.36;100634.08;109644;1284;22159;-78
2023/09/29 10:12:28;;;;;;;12.10;3.60;;;;;;;22.65;65.13;100634.91;107492;1284;22559;-79
2023/09/29 10:15:05;;;;;;;11.70;3.10;;;;;;;22.75;65.01;100640.77;109781;1284;22208;-79
2023/09/29 10:17:43;;;;;;;12.20;2.80;;;;;;;22.85;63.83;100638.67;109811;1284;22753;-79
2023/09/29 10:20:24;;;;;;;8.30;2.50;;;;;;;22.96;62.90;100637.98;109728;1284;22360;-79
2023/09/29 10:23:06;;;;;;;13.10;2.20;;;;;;;23.07;62.75;100641.52;109809;1277;22231;-79
2023/09/29 10:25:39;;;;;;;9.70;2.00;;;;;;;23.11;61.97;100641.99;108046;1284;24250;-79
2023/09/29 10:28:12;;;;;;;8.10;2.00;;;;;;;23.15;60.84;100641.41;106905;1284;22953;-79
2023/09/29 10:30:44;;;;;;;11.40;2.00;;;;;;;23.22;60.33;100640.56;106869;1283;22727;-79
2023/09/29 10:33:18;;;;;;;14.50;2.10;;;;;;;23.29;60.00;100640.48;106858;1284;22549;-79
2023/09/29 10:35:51;;;;;;;8.30;2.40;;;;;;;23.35;59.69;100636.88;106779;1284;22727;-79
2023/09/29 10:38:29;;;;;;;9.00;2.30;;;;;;;23.40;59.83;100628.77;106842;1277;22548;-79
2023/09/29 10:41:04;;;;;;;8.60;2.30;;;;;;;23.44;59.47;100628.63;109820;1282;22158;-79
2023/09/29 10:43:36;;;;;;;10.40;2.30;;;;;;;23.49;59.30;100625.58;109855;1284;22195;-79
2023/09/29 10:46:22;;;;;;;10.40;2.50;;;;;;;23.54;58.87;100617.17;107436;1282;23711;-79
2023/09/29 10:48:54;;;;;;;8.70;2.50;;;;;;;23.65;58.68;100616.78;107004;1284;22603;-79
2023/09/29 10:51:28;;;;;;;6.70;1.90;;;;;;;23.74;58.30;100615.20;107034;1284;22830;-79
2023/09/29 10:54:07;;;;;;;12.20;2.80;;;;;;;23.77;58.09;100615.64;109809;1273;22232;-80
2023/09/29 10:56:39;;;;;;;9.20;2.60;;;;;;;23.82;57.33;100616.76;109737;1284;22404;-80
2023/09/29 10:59:11;;;;;;;9.30;2.50;;;;;;;23.85;56.65;100613.69;109269;1284;22532;-79
2023/09/29 11:01:44;;;;;;;7.70;1.90;;;;;;;23.90;56.27;100611.88;106926;1274;23799;-79
2023/09/29 11:04:16;;;;;;;10.70;1.70;;;;;;;23.93;55.63;100611.38;106891;1284;24407;-79
2023/09/29 11:06:49;;;;;;;8.80;1.90;;;;;;;23.94;55.79;100609.52;106718;1278;22530;-79
2023/09/29 11:09:28;;;;;;;10.20;2.10;;;;;;;23.96;55.30;100606.23;109730;1284;22191;-80
2023/09/29 11:11:59;;;;;;;12.20;2.00;;;;;;;24.00;54.02;100603.61;109834;1282;22206;-79
2023/09/29 11:14:39;;;;;;;18.50;2.90;;;;;;;24.04;53.80;100598.59;109062;1284;22557;-79
2023/09/29 11:17:10;;;;;;;11.10;2.20;;;;;;;24.07;53.94;100600.52;107073;1284;22619;-79
2023/09/29 11:19:52;;;;;;;9.00;1.70;;;;;;;24.10;54.12;100595.20;107031;1283;22549;-80
2023/09/29 11:22:25;;;;;;;10.00;2.40;;;;;;;24.09;53.71;100595.15;109840;1284;22147;-78
2023/09/29 11:25:00;;;;;;;7.60;1.90;;;;;;;24.13;53.54;100588.48;109792;1284;22998;-79
2023/09/29 11:27:32;;;;;;;8.20;2.00;;;;;;;24.18;53.27;100585.34;109820;1284;22164;-79
2023/09/29 11:30:06;;;;;;;8.40;2.10;;;;;;;24.21;52.72;100578.58;109803;1284;22151;-79
2023/09/29 11:32:37;;;;;;;7.00;1.90;;;;;;;24.18;52.59;100580.41;109808;1284;22950;-79
2023/09/29 11:35:13;;;;;;;9.20;2.00;;;;;;;24.22;52.64;100573.28;109794;1284;22965;-79
2023/09/29 11:37:45;;;;;;;7.50;2.20;;;;;;;24.26;52.74;100574.55;109825;1284;22229;-79
2023/09/29 11:40:16;;;;;;;8.30;1.80;;;;;;;24.27;52.52;100571.36;109810;1284;22194;-79
2023/09/29 11:42:47;;;;;;;11.30;2.90;;;;;;;24.31;52.56;100568.33;109818;1284;23076;-80
2023/09/29 11:45:18;;;;;;;11.80;1.70;;;;;;;24.35;51.98;100565.55;109808;1280;23003;-79
2023/09/29 11:47:48;;;;;;;10.70;1.90;;;;;;;24.40;50.92;100560.46;109820;1279;22321;-78
2023/09/29 11:50:19;;;;;;;10.10;1.90;;;;;;;24.44;51.09;100555.87;109787;1284;22152;-79
2023/09/29 11:52:50;;;;;;;8.30;2.40;;;;;;;24.49;51.04;100552.95;109815;1284;22226;-79
2023/09/29 11:55:21;;;;;;;6.40;1.60;;;;;;;24.56;50.50;100557.13;109810;1273;22339;-79
2023/09/29 11:57:52;;;;;;;8.00;1.70;;;;;;;24.63;49.88;100551.46;109788;1284;23471;-79
2023/09/29 12:00:23;;;;;;;11.70;1.90;;;;;;;24.70;49.48;100552.61;109820;1284;22593;-79
2023/09/29 12:02:54;;;;;;;8.70;2.40;;;;;;;24.76;49.59;100551.42;109837;1284;22158;-79
2023/09/29 12:05:25;;;;;;;9.50;1.70;;;;;;;24.81;49.74;100547.59;109863;1280;22203;-79
2023/09/29 12:07:56;;;;;;;10.50;1.80;;;;;;;24.84;49.57;100543.02;109835;1284;23299;-79
2023/09/29 12:10:28;;;;;;;11.20;2.00;;;;;;;24.84;49.17;100537.98;109838;1284;22197;-79
2023/09/29 12:12:59;;;;;;;10.30;2.40;;;;;;;24.82;49.34;100533.14;109842;1270;22199;-79
2023/09/29 12:15:32;;;;;;;9.40;2.10;;;;;;;24.83;49.78;100532.77;109803;1273;22161;-79
2023/09/29 12:18:03;;;;;;;9.20;2.40;;;;;;;24.83;49.76;100528.65;109803;1284;22333;-79
2023/09/29 12:20:34;;;;;;;9.10;1.90;;;;;;;24.86;49.97;100529.80;109840;1284;22727;-80
2023/09/29 12:23:06;;;;;;;10.00;2.00;;;;;;;24.88;49.86;100529.80;109817;1284;23264;-79
2023/09/29 12:25:37;;;;;;;8.90;2.30;;;;;;;24.94;49.50;100529.10;109810;1284;22170;-79
2023/09/29 12:28:08;;;;;;;9.40;1.90;;;;;;;25.02;48.98;100524.84;109827;1284;22241;-80
2023/09/29 12:30:39;;;;;;;6.70;1.70;;;;;;;25.06;48.80;100518.51;109826;1284;22204;-80
2023/09/29 12:33:10;;;;;;;11.80;1.70;;;;;;;25.13;48.77;100520.09;109828;1284;22894;-79
2023/09/29 12:35:41;;;;;;;7.00;1.70;;;;;;;25.18;48.36;100523.73;107252;1277;22550;-79
2023/09/29 12:38:15;;;;;;;8.10;1.90;;;;;;;25.28;47.52;100522.07;107029;1282;22557;-79
2023/09/29 12:40:47;;;;;;;7.10;1.70;;;;;;;25.33;47.41;100520.23;107007;1279;22553;-78
2023/09/29 12:43:18;;;;;;;7.00;1.50;;;;;;;25.36;46.68;100519.50;107262;1267;22565;-80
2023/09/29 12:45:50;;;;;;;7.90;1.60;;;;;;;25.38;46.21;100521.13;107129;1279;23905;-79
2023/09/29 12:48:21;;;;;;;7.70;1.60;;;;;;;25.40;46.18;100520.83;106820;1283;23405;-79
2023/09/29 12:50:52;;;;;;;7.30;1.60;;;;;;;25.41;45.05;100523.20;106630;1283;22746;-80
2023/09/29 12:53:26;;;;;;;7.40;1.40;;;;;;;25.39;45.07;100522.99;107043;1284;22543;-79
2023/09/29 12:56:04;;;;;;;7.40;1.80;;;;;;;25.37;44.62;100521.05;107570;1284;22553;-79
2023/09/29 12:58:54;;;;;;;5.60;1.20;;;;;;;25.37;44.42;100516.66;109829;1277;22167;-80
2023/09/29 13:01:54;;;;;;;5.20;1.30;;;;;;;25.39;44.52;100518.69;107142;1289;22563;-80
2023/09/29 13:04:29;;;;;;;6.30;1.40;;;;;;;25.40;43.57;100521.58;109443;1289;22692;-80
2023/09/29 13:10:14;;;;;;;7.60;1.40;;;;;;;25.39;43.29;100518.69;109450;1289;22308;-81
2023/09/29 13:12:59;;;;;;;9.00;1.10;;;;;;;25.40;42.80;100513.32;109367;1283;22213;-79
2023/09/29 13:15:51;;;;;;;6.10;1.40;;;;;;;25.43;42.80;100514.11;109473;1283;22181;-79
2023/09/29 13:18:31;;;;;;;5.80;1.40;;;;;;;25.48;42.40;100514.38;109352;1289;22167;-78
2023/09/29 13:21:04;;;;;;;7.60;1.40;;;;;;;25.51;42.66;100510.94;106392;1288;23927;-79
2023/09/29 13:23:36;;;;;;;7.50;1.40;;;;;;;25.54;42.68;100512.23;106390;1289;22574;-79
2023/09/29 13:26:07;;;;;;;9.00;1.60;;;;;;;25.56;42.70;100509.02;106621;1284;22517;-78
2023/09/29 13:28:39;;;;;;;7.70;1.60;;;;;;;25.58;42.53;100508.63;107028;1284;24183;-79
2023/09/29 13:31:10;;;;;;;8.90;1.70;;;;;;;25.59;42.50;100508.13;106980;1284;22646;-79
2023/09/29 13:33:42;;;;;;;7.50;1.70;;;;;;;25.62;42.42;100504.08;106881;1277;23162;-79
2023/09/29 13:36:16;;;;;;;7.20;1.80;;;;;;;25.68;42.62;100506.52;107252;1283;24856;-79
2023/09/29 13:39:14;;;;;;;7.80;1.40;;;;;;;25.69;42.36;100503.39;109736;1277;22209;-79
2023/09/29 13:42:04;;;;;;;;;;;;;;;25.67;42.50;100500.66;109809;1283;22438;-79
2023/09/29 13:44:45;;;;;;;7.90;1.60;;;;;;;25.65;42.31;100499.76;109866;1278;22194;-79
2023/09/29 13:47:35;;;;;;;13.80;1.90;;;;;;;25.66;42.52;100495.73;109764;1280;22274;-79
2023/09/29 13:50:14;;;;;;;7.70;1.40;;;;;;;25.66;42.56;100494.02;109844;1283;22194;-79
2023/09/29 13:53:03;;;;;;;9.90;1.50;;;;;;;25.66;42.23;100492.69;109877;1284;22178;-80
2023/09/29 13:55:39;;;;;;;8.90;1.80;;;;;;;25.66;42.33;100489.73;109816;1284;22397;-80
2023/09/29 13:58:10;;;;;;;7.30;1.60;;;;;;;25.65;42.02;100488.38;107378;1282;23998;-79
2023/09/29 14:00:49;;;;;;;5.00;1.10;;;;;;;25.66;42.07;100491.14;106851;1280;22680;-79
2023/09/29 14:03:20;;;;;;;8.00;1.30;;;;;;;25.67;42.29;100491.52;106724;1284;22781;-79
2023/09/29 14:05:54;;;;;;;9.80;1.20;;;;;;;25.69;41.99;100491.58;106738;1280;23888;-80
2023/09/29 14:08:25;;;;;;;4.80;1.50;;;;;;;25.71;42.11;100490.85;106878;1280;22523;-78
2023/09/29 14:10:56;;;;;;;6.70;1.50;;;;;;;25.71;42.25;100488.40;106945;1283;25494;-79
2023/09/29 14:13:27;;;;;;;5.40;1.60;;;;;;;25.70;42.11;100489.17;106846;1284;22788;-79
2023/09/29 14:15:58;;;;;;;6.30;1.30;;;;;;;25.67;42.26;100491.70;106896;1284;25236;-79
2023/09/29 14:18:30;;;;;;;7.40;1.30;;;;;;;25.66;42.00;100493.30;106894;1284;22536;-79
2023/09/29 14:21:01;;;;;;;5.40;1.20;;;;;;;25.66;42.09;100491.73;106864;1274;26830;-79
2023/09/29 14:23:32;;;;;;;5.10;1.40;;;;;;;25.65;41.96;100486.91;106979;1284;22613;-79
2023/09/29 14:26:04;;;;;;;7.50;1.60;;;;;;;25.64;41.63;100489.23;106938;1284;24772;-80
2023/09/29 14:28:36;;;;;;;9.30;2.50;;;;;;;25.61;41.89;100490.02;106841;1284;22782;-79
2023/09/29 14:31:09;;;;;;;9.00;1.80;;;;;;;25.58;42.06;100484.70;106820;1284;23017;-80
2023/09/29 14:33:40;;;;;;;8.20;1.60;;;;;;;25.56;42.12;100483.36;106870;1271;27078;-81
2023/09/29 14:36:12;;;;;;;5.50;1.30;;;;;;;25.54;42.19;100478.48;106842;1284;23170;-79
2023/09/29 14:38:43;;;;;;;5.40;1.50;;;;;;;25.54;42.24;100479.67;107679;1280;22650;-80
2023/09/29 14:41:15;;;;;;;6.30;1.50;;;;;;;25.53;41.94;100479.13;106869;1284;22570;-79
2023/09/29 14:43:47;;;;;;;8.40;1.30;;;;;;;25.51;41.13;100482.54;107016;1268;22597;-80
2023/09/29 14:46:19;;;;;;;8.10;1.30;;;;;;;25.49;41.01;100483.89;107223;1284;23317;-80
2023/09/29 14:48:51;;;;;;;6.30;1.10;;;;;;;25.48;41.13;100484.96;107431;1276;22520;-80
2023/09/29 14:51:22;;;;;;;9.30;1.50;;;;;;;25.47;41.34;100484.27;107367;1277;22553;-80
2023/09/29 14:53:54;;;;;;;6.80;1.30;;;;;;;25.44;41.17;100483.15;107023;1260;22641;-79
2023/09/29 14:56:26;;;;;;;8.90;2.10;;;;;;;25.42;41.41;100479.68;106953;1280;22756;-79
2023/09/29 14:58:57;;;;;;;6.80;2.10;;;;;;;25.41;41.26;100478.70;106984;1280;22598;-79
2023/09/29 15:01:29;;;;;;;7.80;1.70;;;;;;;25.39;41.50;100470.79;106995;1280;22672;-78
2023/09/29 15:04:00;;;;;;;8.20;2.00;;;;;;;25.36;41.57;100465.50;106939;1280;22681;-79
2023/09/29 15:06:32;;;;;;;10.10;1.90;;;;;;;25.32;41.59;100463.88;106850;1277;24297;-79
2023/09/29 15:09:03;;;;;;;10.60;2.10;;;;;;;25.28;41.51;100462.55;106883;1283;26134;-80
2023/09/29 15:11:36;;;;;;;7.60;1.60;;;;;;;25.25;41.79;100461.52;106812;1283;25374;-79
2023/09/29 15:14:07;;;;;;;7.30;1.40;;;;;;;25.20;41.97;100461.48;106805;1280;25456;-80
2023/09/29 15:16:38;;;;;;;9.80;1.50;;;;;;;25.17;42.15;100454.48;106859;1284;25402;-79
2023/09/29 15:19:16;;;;;;;11.00;1.50;;;;;;;25.14;42.22;100458.06;106866;1283;22553;-79
2023/09/29 15:21:48;;;;;;;7.20;1.40;;;;;;;25.10;42.41;100455.11;107277;1284;25144;-80
2023/09/29 15:24:19;;;;;;;9.80;2.00;;;;;;;25.06;42.83;100448.65;107123;1284;22540;-79
2023/09/29 15:26:50;;;;;;;12.40;2.10;;;;;;;25.01;43.02;100450.64;106960;1282;22622;-79
2023/09/29 15:29:22;;;;;;;14.90;3.00;;;;;;;24.96;43.07;100453.66;106998;1284;24757;-79
2023/09/29 15:31:55;;;;;;;9.50;1.80;;;;;;;24.89;43.48;100455.39;106959;1281;22922;-80
2023/09/29 15:34:28;;;;;;;10.20;1.80;;;;;;;24.83;43.51;100456.27;106970;1284;22587;-79
2023/09/29 15:37:00;;;;;;;11.10;2.40;;;;;;;24.77;43.99;100458.58;106865;1279;22581;-79
2023/09/29 15:39:32;;;;;;;21.30;2.90;;;;;;;24.72;44.11;100457.19;106905;1283;24770;-79
2023/09/29 15:42:04;;;;;;;18.20;3.40;;;;;;;24.66;44.49;100458.45;106816;1284;24291;-79
2023/09/29 15:44:35;;;;;;;13.20;2.70;;;;;;;24.59;44.58;100459.94;106795;1284;25577;-79
2023/09/29 15:47:07;;;;;;;21.50;3.50;;;;;;;24.53;45.08;100461.01;106772;1277;22526;-78
2023/09/29 15:49:41;;;;;;;19.10;2.90;;;;;;;24.47;45.54;100463.55;107137;1284;22537;-79
2023/09/29 15:52:14;;;;;;;16.50;3.10;;;;;;;24.42;45.85;100467.05;107081;1276;22678;-79
2023/09/29 15:54:46;;;;;;;15.90;2.30;;;;;;;24.35;45.95;100466.97;109863;1273;22211;-77
2023/09/29 15:57:17;;;;;;;19.20;3.20;;;;;;;24.27;46.16;100468.30;107239;1284;22955;-76
2023/09/29 15:59:48;;;;;;;16.40;3.50;;;;;;;24.20;46.45;100474.23;106991;1283;27440;-79
2023/09/29 16:02:20;;;;;;;18.10;2.80;;;;;;;24.12;46.51;100475.79;106911;1284;24316;-79
2023/09/29 16:04:51;;;;;;;12.80;2.70;;;;;;;24.05;46.55;100477.20;106968;1283;25327;-79
2023/09/29 16:07:22;;;;;;;22.60;4.60;;;;;;;23.98;47.30;100477.83;107060;1284;22553;-78
2023/09/29 16:09:55;;;;;;;15.30;3.80;;;;;;;23.92;47.45;100478.90;107039;1264;25918;-79
2023/09/29 16:12:27;;;;;;;18.70;4.50;;;;;;;23.84;47.66;100481.77;106997;1281;22558;-78
2023/09/29 16:14:59;;;;;;;19.00;3.30;;;;;;;23.77;47.63;100481.45;107722;1276;22678;-78
2023/09/29 16:17:33;;;;;;;19.30;3.90;;;;;;;23.69;47.98;100485.11;107291;1284;26522;-78
2023/09/29 16:20:05;;;;;;;34.00;14.20;;;;;;;23.62;48.43;100480.15;107245;1272;24225;-78
2023/09/29 16:22:37;;;;;;;25.50;11.10;;;;;;;23.56;49.35;100478.06;106897;1276;25290;-79
2023/09/29 16:25:11;;;;;;;26.40;11.20;;;;;;;23.50;49.60;100477.14;107036;1284;23747;-78
2023/09/29 16:27:43;;;;;;;26.70;8.50;;;;;;;23.44;49.93;100477.54;109836;1279;22213;-77
2023/09/29 16:30:15;;;;;;;27.50;9.10;;;;;;;23.38;50.16;100484.77;109821;1284;22218;-78
2023/09/29 16:32:46;;;;;;;21.90;8.00;;;;;;;23.31;50.72;100481.94;109822;1276;22149;-77
2023/09/29 16:35:18;;;;;;;29.60;5.90;;;;;;;23.24;50.66;100489.68;109819;1264;22138;-78
2023/09/29 16:37:49;;;;;;;22.30;5.40;;;;;;;23.17;51.03;100488.38;109829;1283;22194;-78
2023/09/29 16:40:20;;;;;;;20.60;3.90;;;;;;;23.10;51.34;100486.71;109802;1280;22974;-76
2023/09/29 16:42:51;;;;;;;20.40;3.60;;;;;;;23.04;51.50;100486.90;109821;1270;22410;-78
2023/09/29 16:45:21;;;;;;;21.00;3.30;;;;;;;22.96;51.65;100493.23;109849;1284;22174;-78
2023/09/29 16:47:53;;;;;;;18.70;3.60;;;;;;;22.88;51.73;100497.70;109810;1283;23074;-78
2023/09/29 16:50:24;;;;;;;20.60;3.20;;;;;;;22.79;51.91;100496.35;109833;1284;22957;-79
2023/09/29 16:52:55;;;;;;;20.60;3.20;;;;;;;22.70;52.12;100494.98;109807;1284;22164;-77
2023/09/29 16:55:26;;;;;;;17.70;3.70;;;;;;;22.61;52.31;100497.08;109808;1284;22192;-78
2023/09/29 16:57:56;;;;;;;28.70;3.90;;;;;;;22.53;52.53;100498.77;109799;1284;23166;-77
2023/09/29 17:00:27;;;;;;;24.50;3.40;;;;;;;22.45;52.77;100496.94;109715;1277;22481;-77
2023/09/29 17:02:58;;;;;;;17.60;3.90;;;;;;;22.37;53.03;100498.39;109789;1283;22527;-77
2023/09/29 17:05:29;;;;;;;21.20;3.80;;;;;;;22.30;53.24;100500.23;109757;1280;22315;-77
2023/09/29 17:08:00;;;;;;;22.00;4.20;;;;;;;22.22;53.55;100501.29;109754;1277;23060;-77
2023/09/29 17:10:33;;;;;;;23.00;5.60;;;;;;;22.16;53.75;100498.92;109798;1277;22266;-78
2023/09/29 17:13:03;;;;;;;25.50;7.00;;;;;;;22.10;53.97;100499.73;109836;1283;22927;-76
2023/09/29 17:15:38;;;;;;;28.50;11.20;;;;;;;22.04;54.13;100497.27;109844;1283;22266;-75
2023/09/29 17:18:09;;;;;;;30.00;10.00;;;;;;;21.98;54.36;100497.47;109802;1277;22906;-76
2023/09/29 17:20:40;;;;;;;33.70;11.40;;;;;;;21.93;54.42;100498.73;109812;1283;22243;-76
2023/09/29 17:23:12;;;;;;;28.90;8.60;;;;;;;21.84;54.69;100499.13;109808;1283;22281;-76
2023/09/29 17:25:43;;;;;;;27.30;7.70;;;;;;;21.76;54.96;100500.39;109827;1283;22151;-77
2023/09/29 17:28:16;;;;;;;24.50;10.20;;;;;;;21.70;55.23;100496.91;109812;1283;22320;-76
2023/09/29 17:30:47;;;;;;;32.90;10.20;;;;;;;21.65;55.35;100496.49;109848;1283;22215;-76
2023/09/29 17:33:18;;;;;;;32.80;9.50;;;;;;;21.59;55.64;100493.22;109825;1283;22203;-77
2023/09/29 17:35:49;;;;;;;38.10;10.10;;;;;;;21.53;55.81;100486.52;109857;1283;22232;-76
2023/09/29 17:38:20;;;;;;;30.50;7.00;;;;;;;21.47;56.14;100480.42;109817;1280;22158;-77
2023/09/29 17:40:51;;;;;;;37.90;10.30;;;;;;;21.41;56.31;100476.33;109861;1277;22258;-77
2023/09/29 17:43:22;;;;;;;37.30;11.30;;;;;;;21.34;56.67;100476.01;108407;1283;23304;-78
2023/09/29 17:45:52;;;;;;;35.40;10.70;;;;;;;21.28;57.00;100481.03;107202;1277;22589;-79
2023/09/29 17:48:23;;;;;;;34.30;9.90;;;;;;;21.22;57.37;100480.31;107098;1283;22488;-82
2023/09/29 17:50:54;;;;;;;31.60;9.90;;;;;;;21.16;57.70;100480.04;107932;1277;25255;-78
2023/09/29 17:53:25;;;;;;;30.70;9.40;;;;;;;21.09;57.89;100477.90;107987;1283;22524;-79
2023/09/29 17:55:59;;;;;;;24.50;8.50;;;;;;;21.04;58.21;100477.86;107502;1280;25289;-78
2023/09/29 17:58:30;;;;;;;29.60;9.60;;;;;;;20.98;58.51;100481.35;108406;1283;22625;-78
2023/09/29 18:01:06;;;;;;;28.10;9.70;;;;;;;20.92;58.77;100483.15;108118;1277;25475;-77
2023/09/29 18:03:38;;;;;;;30.70;9.60;;;;;;;20.86;59.01;100485.55;109879;1283;22339;-78
2023/09/29 18:06:10;;;;;;;22.80;9.10;;;;;;;20.80;59.23;100489.79;109822;1283;22284;-78
2023/09/29 18:08:41;;;;;;;28.40;9.50;;;;;;;20.74;59.46;100487.53;109800;1267;22169;-78
2023/09/29 18:11:17;;;;;;;30.70;9.20;;;;;;;20.67;59.68;100486.08;109806;1283;22767;-79
2023/09/29 18:13:48;;;;;;;26.40;7.50;;;;;;;20.61;59.89;100484.31;109789;1280;22234;-79
2023/09/29 18:16:19;;;;;;;21.10;8.10;;;;;;;20.56;60.08;100480.33;109819;1283;22262;-78
2023/09/29 18:18:50;;;;;;;24.70;7.20;;;;;;;20.52;60.26;100484.94;109799;1283;22214;-78
2023/09/29 18:21:21;;;;;;;21.40;7.20;;;;;;;20.46;60.41;100481.80;109817;1283;22221;-79
2023/09/29 18:23:53;;;;;;;23.70;8.70;;;;;;;20.41;60.57;100483.89;109830;1275;22276;-78
2023/09/29 18:26:24;;;;;;;24.50;8.10;;;;;;;20.37;60.77;100482.70;109771;1283;22181;-78
2023/09/29 18:28:57;;;;;;;22.80;6.60;;;;;;;20.32;60.97;100485.14;109712;1280;22323;-78
2023/09/29 18:31:28;;;;;;;21.20;6.10;;;;;;;20.26;61.06;100488.89;109673;1276;22274;-78
2023/09/29 18:33:59;;;;;;;21.00;6.20;;;;;;;20.19;61.30;100482.19;109709;1277;22409;-78
2023/09/29 18:36:30;;;;;;;18.60;6.10;;;;;;;20.15;61.24;100481.11;109716;1276;22202;-78
2023/09/29 18:39:02;;;;;;;23.40;7.40;;;;;;;20.10;61.44;100478.35;109782;1283;22273;-78
2023/09/29 18:41:34;;;;;;;24.80;7.90;;;;;;;20.06;61.58;100478.46;109817;1283;22277;-78
2023/09/29 18:44:05;;;;;;;25.00;8.40;;;;;;;20.03;61.77;100478.83;109800;1279;22197;-78
2023/09/29 18:46:36;;;;;;;23.30;10.10;;;;;;;20.01;61.90;100482.05;109822;1283;22217;-78
2023/09/29 18:49:08;;;;;;;23.60;10.20;;;;;;;19.98;62.02;100483.75;109776;1280;22160;-78
2023/09/29 18:51:40;;;;;;;29.10;12.70;;;;;;;19.96;62.22;100487.23;109751;1283;23041;-78
2023/09/29 18:54:11;;;;;;;28.30;11.80;;;;;;;19.94;62.47;100487.11;109799;1277;22312;-78
2023/09/29 18:56:42;;;;;;;27.20;11.50;;;;;;;19.92;62.62;100485.29;109787;1277;22897;-78
2023/09/29 18:59:13;;;;;;;27.40;12.30;;;;;;;19.90;62.75;100487.02;109784;1277;22396;-78
2023/09/29 19:01:43;;;;;;;24.70;10.10;;;;;;;19.89;62.85;100483.99;109786;1283;22208;-78
2023/09/29 19:04:15;;;;;;;26.40;9.80;;;;;;;19.87;63.09;100480.05;109807;1283;22902;-79
2023/09/29 19:06:46;;;;;;;25.90;10.10;;;;;;;19.85;63.06;100482.14;109808;1283;22200;-78
2023/09/29 19:09:17;;;;;;;26.10;9.70;;;;;;;19.84;63.31;100486.84;109760;1283;23452;-78
2023/09/29 19:11:48;;;;;;;27.70;8.90;;;;;;;19.83;63.33;100481.30;109806;1283;22196;-78
2023/09/29 19:14:19;;;;;;;26.80;9.60;;;;;;;19.82;63.44;100481.21;109793;1283;22325;-78
2023/09/29 19:16:51;;;;;;;31.00;10.70;;;;;;;19.81;63.60;100476.18;109799;1274;22203;-78
2023/09/29 19:19:23;;;;;;;21.80;10.00;;;;;;;19.81;63.71;100480.51;109624;1284;22193;-78
2023/09/29 19:21:54;;;;;;;28.50;9.40;;;;;;;19.78;63.94;100481.63;109772;1283;22264;-78
2023/09/29 19:24:24;;;;;;;31.80;10.30;;;;;;;19.77;64.08;100479.18;109800;1283;22156;-77
2023/09/29 19:26:55;;;;;;;24.90;10.80;;;;;;;19.76;64.22;100479.25;109777;1283;22223;-77
2023/09/29 19:29:26;;;;;;;24.30;10.90;;;;;;;19.75;64.19;100479.11;109731;1283;22351;-77
2023/09/29 19:31:57;;;;;;;30.80;11.00;;;;;;;19.74;64.33;100479.05;109761;1277;22421;-77